Time;durP1;ratioP1;P1;durP2;ratioP2;P2;SDS_P1;SDS_P2;PMS_P1;PMS_P2;Temp;Humidity;BMP_temperature;BMP_pressure;BME280_temperature;BME280_humidity;BME280_pressure;Samples;Min_cycle;Max_cycle;Signal;HPM_P1;HPM_P2
2022/05/22 00:02:25;;;;;;;3.40;1.48;;;14.00;99.90;;;;;;5014766;28;20035;-72
2022/05/22 00:04:51;;;;;;;3.22;1.35;;;14.00;99.90;;;;;;5023785;28;20033;-71
2022/05/22 00:07:20;;;;;;;2.90;1.50;;;14.00;99.90;;;;;;5024578;28;20070;-72
2022/05/22 00:09:46;;;;;;;6.20;1.35;;;14.10;99.90;;;;;;5017265;28;20475;-73
2022/05/22 00:12:13;;;;;;;4.60;1.23;;;14.00;99.90;;;;;;5019504;28;20032;-72
2022/05/22 00:14:39;;;;;;;3.38;1.20;;;14.00;99.90;;;;;;5004638;28;20037;-72
2022/05/22 00:17:06;;;;;;;3.55;1.30;;;14.00;99.90;;;;;;5003953;28;20028;-72
2022/05/22 00:19:32;;;;;;;4.35;1.17;;;14.00;99.90;;;;;;5024212;28;20467;-73
2022/05/22 00:21:59;;;;;;;3.53;1.30;;;14.00;99.90;;;;;;5022768;28;20455;-74
2022/05/22 00:24:30;;;;;;;2.53;1.30;;;13.90;99.90;;;;;;5005621;28;20026;-73
2022/05/22 00:26:57;;;;;;;2.75;1.40;;;13.90;99.90;;;;;;5023076;28;20152;-73
2022/05/22 00:29:22;;;;;;;3.13;1.35;;;13.90;99.90;;;;;;5024998;28;20585;-71
2022/05/22 00:31:48;;;;;;;3.15;1.60;;;13.90;99.90;;;;;;5019132;23;20182;-79
2022/05/22 00:34:15;;;;;;;1.70;1.30;;;13.80;99.90;;;;;;5023285;28;20111;-78
2022/05/22 00:36:41;;;;;;;4.63;1.60;;;13.80;99.90;;;;;;5049215;28;20098;-79
2022/05/22 00:39:07;;;;;;;2.58;1.67;;;13.80;99.90;;;;;;5037154;28;20677;-79
2022/05/22 00:41:34;;;;;;;4.57;1.80;;;13.80;99.90;;;;;;5021422;28;20021;-78
2022/05/22 00:44:02;;;;;;;2.90;1.10;;;13.70;99.90;;;;;;5012033;28;20580;-78
2022/05/22 00:46:29;;;;;;;3.85;1.52;;;13.70;99.90;;;;;;5030324;28;20049;-79
2022/05/22 00:49:02;;;;;;;2.72;1.50;;;13.70;99.90;;;;;;5024590;28;20064;-79
2022/05/22 00:51:33;;;;;;;2.97;1.52;;;13.70;99.90;;;;;;5020817;28;20064;-77
2022/05/22 00:54:15;;;;;;;2.85;1.25;;;13.70;99.90;;;;;;5015460;28;20022;-76
2022/05/22 00:56:46;;;;;;;5.80;1.38;;;13.70;99.90;;;;;;5020469;28;20028;-76
2022/05/22 00:59:16;;;;;;;2.42;1.48;;;13.60;99.90;;;;;;5027581;28;20476;-79
2022/05/22 01:01:42;;;;;;;4.03;1.65;;;13.60;99.90;;;;;;5028333;28;20037;-77
2022/05/22 01:04:19;;;;;;;3.58;1.27;;;13.50;99.90;;;;;;5029009;28;20441;-78
2022/05/22 01:06:45;;;;;;;2.38;1.20;;;13.50;99.90;;;;;;5029703;28;20056;-78
2022/05/22 01:09:11;;;;;;;3.30;1.67;;;13.40;99.90;;;;;;5026138;28;20032;-79
2022/05/22 01:11:37;;;;;;;2.58;1.42;;;13.40;99.90;;;;;;5024227;28;20239;-76
2022/05/22 01:14:07;;;;;;;5.63;1.50;;;13.40;99.90;;;;;;5021540;28;20018;-76
2022/05/22 01:16:34;;;;;;;3.03;1.40;;;13.30;99.90;;;;;;5022653;28;20045;-78
2022/05/22 01:19:00;;;;;;;3.38;1.30;;;13.30;99.90;;;;;;5031327;28;20096;-78
2022/05/22 01:21:29;;;;;;;3.20;1.48;;;13.30;99.90;;;;;;5028207;28;20097;-76
2022/05/22 01:23:55;;;;;;;3.28;1.48;;;13.30;99.90;;;;;;5026939;28;20501;-76
2022/05/22 01:26:24;;;;;;;2.22;1.30;;;13.30;99.90;;;;;;5026331;28;20040;-79
2022/05/22 01:28:50;;;;;;;4.38;1.67;;;13.30;99.90;;;;;;5024809;28;20061;-78
2022/05/22 01:31:16;;;;;;;1.33;1.15;;;13.20;99.90;;;;;;5029708;28;20132;-76
2022/05/22 01:33:42;;;;;;;2.58;1.50;;;13.20;99.90;;;;;;5024161;28;20440;-76
2022/05/22 01:36:08;;;;;;;3.53;1.60;;;13.10;99.90;;;;;;5023964;28;20070;-78
2022/05/22 01:38:36;;;;;;;5.47;1.83;;;13.10;99.90;;;;;;5029167;28;20032;-78
2022/05/22 01:41:02;;;;;;;2.90;1.33;;;13.10;99.90;;;;;;5011223;28;20037;-78
2022/05/22 01:43:28;;;;;;;3.13;1.38;;;13.10;99.90;;;;;;5031362;28;20017;-78
2022/05/22 01:45:56;;;;;;;7.10;1.88;;;13.10;99.90;;;;;;5027619;28;20022;-78
2022/05/22 01:48:23;;;;;;;3.95;1.85;;;13.10;99.90;;;;;;5038188;28;20022;-78
2022/05/22 01:50:48;;;;;;;2.33;1.05;;;13.00;99.90;;;;;;5027526;28;20420;-78
2022/05/22 01:53:17;;;;;;;2.88;1.63;;;13.00;99.90;;;;;;5031995;28;20044;-78
2022/05/22 01:55:42;;;;;;;4.28;1.35;;;13.00;99.90;;;;;;5031051;28;20028;-78
2022/05/22 01:58:08;;;;;;;5.32;1.55;;;13.00;99.90;;;;;;5032391;28;20021;-78
2022/05/22 02:00:35;;;;;;;2.38;1.52;;;12.90;99.90;;;;;;5033909;28;20079;-78
2022/05/22 02:03:01;;;;;;;3.40;1.60;;;12.90;99.90;;;;;;5039190;28;20508;-78
2022/05/22 02:05:27;;;;;;;6.88;1.35;;;12.90;99.90;;;;;;5032941;28;20033;-78
2022/05/22 02:10:38;;;;;;;5.63;1.73;;;13.00;99.90;;;;;;5033578;28;20404;-78
2022/05/22 02:13:04;;;;;;;2.67;1.17;;;13.00;99.90;;;;;;5028356;28;20077;-78
2022/05/22 02:15:31;;;;;;;4.32;1.33;;;13.00;99.90;;;;;;5026628;28;20392;-77
2022/05/22 02:17:57;;;;;;;5.10;1.83;;;12.90;99.90;;;;;;5029163;28;20020;-78
2022/05/22 02:20:23;;;;;;;3.95;1.80;;;13.00;99.90;;;;;;5032203;28;20465;-77
2022/05/22 02:22:52;;;;;;;4.05;1.23;;;12.90;99.90;;;;;;5033871;28;20037;-78
2022/05/22 02:25:26;;;;;;;3.72;1.58;;;12.90;99.90;;;;;;5035057;28;20552;-78
2022/05/22 02:27:52;;;;;;;4.22;1.85;;;12.90;99.90;;;;;;5033029;28;20415;-78
2022/05/22 02:30:21;;;;;;;3.63;1.77;;;12.90;99.90;;;;;;5025369;28;20058;-78
2022/05/22 02:32:47;;;;;;;5.13;1.60;;;12.90;99.90;;;;;;5029207;28;20416;-78
2022/05/22 02:35:14;;;;;;;3.58;1.45;;;12.90;99.90;;;;;;5027360;28;20013;-78
2022/05/22 02:37:49;;;;;;;2.60;1.60;;;12.80;99.90;;;;;;5033446;28;20108;-77
2022/05/22 02:40:17;;;;;;;2.90;1.40;;;12.90;99.90;;;;;;5033587;28;20024;-78
2022/05/22 02:42:48;;;;;;;8.35;1.70;;;12.80;99.90;;;;;;5037121;28;20039;-78
2022/05/22 02:45:17;;;;;;;2.75;1.30;;;12.80;99.90;;;;;;5030651;28;20663;-77
2022/05/22 02:47:42;;;;;;;2.70;1.60;;;12.90;99.90;;;;;;5024595;28;20052;-78
2022/05/22 02:50:10;;;;;;;4.80;1.90;;;12.90;99.90;;;;;;5035121;28;20026;-78
2022/05/22 02:52:36;;;;;;;2.28;1.45;;;12.80;99.90;;;;;;5026158;28;20033;-77
2022/05/22 02:55:03;;;;;;;3.08;1.77;;;12.70;99.90;;;;;;5028923;28;20060;-78
2022/05/22 02:57:35;;;;;;;1.95;1.40;;;12.70;99.90;;;;;;5026562;28;20017;-78
2022/05/22 03:00:03;;;;;;;3.65;1.70;;;12.70;99.90;;;;;;5030441;28;20021;-78
2022/05/22 03:02:29;;;;;;;3.55;1.70;;;12.80;99.90;;;;;;5033821;28;20056;-77
2022/05/22 03:04:54;;;;;;;3.13;1.75;;;12.70;99.90;;;;;;5028723;28;20112;-77
2022/05/22 03:07:20;;;;;;;6.32;1.83;;;12.70;99.90;;;;;;5026713;28;20104;-78
2022/05/22 03:09:47;;;;;;;4.13;2.28;;;12.70;99.90;;;;;;5023553;28;20044;-78
2022/05/22 03:12:15;;;;;;;7.22;3.00;;;12.70;99.90;;;;;;5026629;28;20041;-78
2022/05/22 03:14:46;;;;;;;4.80;2.90;;;12.70;99.90;;;;;;5031302;28;20079;-78
2022/05/22 03:17:11;;;;;;;3.53;2.78;;;12.70;99.90;;;;;;5034682;28;20026;-77
2022/05/22 03:19:37;;;;;;;3.58;2.70;;;12.70;99.90;;;;;;5029396;28;20039;-78
2022/05/22 03:22:05;;;;;;;5.30;2.92;;;12.60;99.90;;;;;;5031642;28;20085;-78
2022/05/22 03:24:31;;;;;;;5.05;2.60;;;12.50;99.90;;;;;;5027500;28;20021;-78
2022/05/22 03:26:56;;;;;;;6.32;3.08;;;12.40;99.90;;;;;;5024418;28;20562;-78
2022/05/22 03:29:22;;;;;;;4.35;2.63;;;12.40;99.90;;;;;;5039622;28;20020;-78
2022/05/22 03:31:48;;;;;;;4.88;2.08;;;12.30;99.90;;;;;;5027597;28;20084;-78
2022/05/22 03:34:14;;;;;;;4.35;2.20;;;12.30;99.90;;;;;;5024703;28;20029;-77
2022/05/22 03:36:40;;;;;;;5.35;2.45;;;12.30;99.90;;;;;;5036638;28;20044;-78
2022/05/22 03:39:06;;;;;;;5.10;2.20;;;12.30;99.90;;;;;;5031537;28;20508;-78
2022/05/22 03:41:33;;;;;;;4.53;2.33;;;12.20;99.90;;;;;;5030959;28;20712;-79
2022/05/22 03:43:59;;;;;;;3.08;1.92;;;12.20;99.90;;;;;;5024290;28;20030;-77
2022/05/22 03:46:24;;;;;;;4.00;2.45;;;12.10;99.90;;;;;;5030760;28;20036;-79
2022/05/22 03:48:50;;;;;;;2.25;1.75;;;12.10;99.90;;;;;;5031813;28;20118;-79
2022/05/22 03:51:16;;;;;;;3.92;1.80;;;12.10;99.90;;;;;;5026404;28;20689;-78
2022/05/22 03:53:42;;;;;;;3.05;1.77;;;12.10;99.90;;;;;;5037871;28;20020;-78
2022/05/22 03:56:14;;;;;;;3.50;1.70;;;12.10;99.90;;;;;;5024628;28;20025;-78
2022/05/22 03:58:40;;;;;;;2.25;1.60;;;12.10;99.90;;;;;;5031414;28;20129;-77
2022/05/22 04:01:10;;;;;;;4.60;1.88;;;12.10;99.90;;;;;;5027345;28;20022;-78
2022/05/22 04:03:36;;;;;;;4.65;1.75;;;12.10;99.90;;;;;;5033130;28;20423;-77
2022/05/22 04:06:04;;;;;;;5.93;1.63;;;12.20;99.90;;;;;;5027530;28;20157;-78
2022/05/22 04:08:33;;;;;;;3.90;1.70;;;12.20;99.90;;;;;;5029827;28;20518;-78
2022/05/22 04:11:05;;;;;;;4.22;1.85;;;12.20;99.90;;;;;;5029321;28;20029;-78
2022/05/22 04:13:31;;;;;;;2.53;1.60;;;12.20;99.90;;;;;;5023488;28;20026;-78
2022/05/22 04:15:57;;;;;;;3.38;1.55;;;12.20;99.90;;;;;;5033025;28;20465;-78
2022/05/22 04:18:22;;;;;;;3.97;2.10;;;12.20;99.90;;;;;;5035642;28;20029;-78
2022/05/22 04:20:48;;;;;;;5.03;1.70;;;12.20;99.90;;;;;;5026320;28;20083;-78
2022/05/22 04:25:59;;;;;;;4.15;2.25;;;12.30;99.90;;;;;;5026027;28;20036;-78
2022/05/22 04:28:27;;;;;;;7.57;1.75;;;12.30;99.90;;;;;;5029394;28;20112;-77
2022/05/22 04:30:53;;;;;;;3.50;1.77;;;12.30;99.90;;;;;;5029154;28;20118;-78
2022/05/22 04:33:19;;;;;;;4.68;2.38;;;12.50;99.90;;;;;;5029779;28;20048;-77
2022/05/22 04:35:45;;;;;;;6.47;1.90;;;12.50;99.90;;;;;;5030328;28;20404;-79
2022/05/22 04:38:11;;;;;;;5.35;2.60;;;12.60;99.90;;;;;;5029332;28;20453;-78
2022/05/22 04:40:39;;;;;;;4.25;2.03;;;12.60;99.90;;;;;;5024448;28;20060;-78
2022/05/22 04:43:05;;;;;;;6.15;2.50;;;12.70;99.90;;;;;;5029079;28;20081;-78
2022/05/22 04:45:34;;;;;;;2.22;1.65;;;12.80;99.90;;;;;;5026881;28;20033;-78
2022/05/22 04:48:00;;;;;;;4.03;2.50;;;12.90;99.90;;;;;;5022270;28;20033;-79
2022/05/22 04:50:25;;;;;;;4.43;2.22;;;13.00;99.90;;;;;;5031593;28;20087;-78
2022/05/22 04:52:51;;;;;;;2.75;2.10;;;13.10;99.90;;;;;;5026227;28;20366;-78
2022/05/22 04:55:17;;;;;;;5.30;2.70;;;13.30;99.90;;;;;;5028862;28;20049;-77
2022/05/22 04:57:43;;;;;;;6.78;2.83;;;13.40;99.90;;;;;;5029407;28;20033;-78
2022/05/22 05:00:11;;;;;;;5.10;2.97;;;13.50;99.90;;;;;;5026072;28;20477;-77
2022/05/22 05:02:37;;;;;;;6.85;2.42;;;13.70;99.90;;;;;;5029591;28;20120;-77
2022/05/22 05:05:05;;;;;;;4.70;2.45;;;13.80;99.90;;;;;;5027863;28;20103;-77
2022/05/22 05:07:31;;;;;;;3.85;2.67;;;14.00;99.90;;;;;;5018828;28;20028;-77
2022/05/22 05:09:57;;;;;;;4.75;2.30;;;14.10;99.90;;;;;;5028719;28;20037;-77
2022/05/22 05:12:23;;;;;;;6.05;2.60;;;14.20;99.90;;;;;;5027618;28;20021;-77
2022/05/22 05:14:49;;;;;;;5.10;2.72;;;14.30;99.90;;;;;;5030002;28;20037;-77
2022/05/22 05:17:17;;;;;;;4.40;2.20;;;14.40;99.90;;;;;;5024375;28;20028;-77
2022/05/22 05:19:44;;;;;;;3.05;2.15;;;14.50;99.90;;;;;;5025414;28;20029;-77
2022/05/22 05:22:10;;;;;;;3.28;2.35;;;14.50;99.90;;;;;;5023818;28;20038;-77
2022/05/22 05:24:37;;;;;;;3.40;2.10;;;14.70;99.90;;;;;;5021815;28;20063;-77
2022/05/22 05:27:03;;;;;;;5.63;2.38;;;14.80;99.90;;;;;;5031756;28;20392;-77
2022/05/22 05:29:28;;;;;;;5.18;2.03;;;14.90;99.90;;;;;;5031834;28;20044;-78
2022/05/22 05:31:54;;;;;;;4.43;2.22;;;15.00;99.90;;;;;;5025552;28;20029;-78
2022/05/22 05:34:19;;;;;;;4.78;2.03;;;15.10;99.90;;;;;;5033717;28;20357;-77
2022/05/22 05:36:45;;;;;;;7.97;2.83;;;15.10;99.90;;;;;;5029685;28;20025;-76
2022/05/22 05:39:11;;;;;;;5.07;2.15;;;15.10;99.90;;;;;;5035265;28;20070;-78
2022/05/22 05:41:37;;;;;;;6.90;2.70;;;15.20;99.90;;;;;;5025394;28;20527;-78
2022/05/22 05:44:07;;;;;;;4.90;2.65;;;15.30;99.90;;;;;;5025458;28;20029;-83
2022/05/22 05:46:36;;;;;;;3.53;2.10;;;15.40;99.90;;;;;;5033420;28;20383;-80
2022/05/22 05:49:03;;;;;;;4.95;2.33;;;15.50;99.90;;;;;;5028082;28;20041;-81
2022/05/22 05:51:29;;;;;;;5.68;2.08;;;15.50;99.90;;;;;;5029443;28;20057;-84
2022/05/22 05:53:55;;;;;;;4.28;2.20;;;15.50;99.90;;;;;;5029695;28;20022;-83
2022/05/22 05:56:21;;;;;;;3.85;2.70;;;15.50;99.90;;;;;;5020743;28;20528;-82
2022/05/22 05:58:48;;;;;;;5.60;2.53;;;15.60;99.90;;;;;;5025433;28;20125;-79
2022/05/22 06:01:15;;;;;;;3.20;2.70;;;15.70;99.90;;;;;;5019042;28;20017;-83
2022/05/22 06:03:41;;;;;;;4.78;2.30;;;15.70;99.90;;;;;;5030786;28;20053;-82
2022/05/22 06:06:09;;;;;;;3.53;2.47;;;15.60;99.90;;;;;;5024592;28;20061;-84
2022/05/22 06:08:35;;;;;;;4.97;2.10;;;15.80;99.90;;;;;;5030644;28;20109;-84
2022/05/22 06:11:01;;;;;;;5.40;2.20;;;16.00;99.90;;;;;;5022426;28;20022;-85
2022/05/22 06:13:27;;;;;;;3.75;2.30;;;16.10;99.90;;;;;;5027390;28;20041;-87
2022/05/22 06:15:52;;;;;;;8.57;2.72;;;16.20;99.90;;;;;;5028112;28;20037;-85
2022/05/22 06:18:19;;;;;;;3.20;2.00;;;16.40;99.90;;;;;;5062602;23;20367;-85
2022/05/22 06:20:45;;;;;;;3.88;1.92;;;16.50;99.90;;;;;;5039648;28;20041;-85
2022/05/22 06:23:11;;;;;;;3.65;2.10;;;16.50;99.90;;;;;;5042623;28;20032;-82
2022/05/22 06:25:39;;;;;;;4.90;2.53;;;16.40;99.90;;;;;;5042198;28;20036;-84
2022/05/22 06:28:05;;;;;;;4.93;2.10;;;16.40;99.90;;;;;;5029396;28;20033;-85
2022/05/22 06:30:31;;;;;;;7.35;2.40;;;16.40;99.90;;;;;;5020314;28;20604;-82
2022/05/22 06:32:57;;;;;;;3.97;1.98;;;16.50;99.90;;;;;;5021464;28;20045;-81
2022/05/22 06:35:23;;;;;;;5.00;2.45;;;16.50;99.90;;;;;;5021039;28;20477;-84
2022/05/22 06:37:49;;;;;;;6.60;2.67;;;16.60;99.90;;;;;;5021850;28;20389;-84
2022/05/22 06:40:15;;;;;;;4.35;2.50;;;16.60;99.90;;;;;;5025982;28;20025;-82
2022/05/22 06:42:43;;;;;;;3.42;2.05;;;16.70;99.90;;;;;;5003258;28;20474;-83
2022/05/22 06:45:11;;;;;;;6.15;2.40;;;16.70;99.90;;;;;;5029068;28;20018;-84
2022/05/22 06:47:37;;;;;;;3.33;2.33;;;16.60;99.90;;;;;;5027220;28;20083;-84
2022/05/22 06:50:05;;;;;;;4.72;2.33;;;16.70;99.90;;;;;;5029426;28;20513;-84
2022/05/22 06:52:32;;;;;;;3.05;2.05;;;16.70;99.90;;;;;;5021504;28;20155;-84
2022/05/22 06:54:59;;;;;;;3.97;1.98;;;16.60;99.90;;;;;;5012554;28;20107;-84
2022/05/22 06:57:24;;;;;;;4.45;1.70;;;16.60;99.90;;;;;;5000633;28;20021;-84
2022/05/22 06:59:53;;;;;;;8.38;3.38;;;16.70;99.90;;;;;;5012221;28;20021;-83
2022/05/22 07:02:19;;;;;;;4.60;1.90;;;16.80;99.90;;;;;;5018035;28;20034;-84
2022/05/22 07:04:45;;;;;;;4.53;2.28;;;16.80;99.90;;;;;;5023200;28;20029;-84
2022/05/22 07:07:11;;;;;;;6.80;2.00;;;17.00;99.90;;;;;;5008528;28;20079;-84
2022/05/22 07:09:37;;;;;;;7.35;2.65;;;17.10;99.70;;;;;;5005191;28;20025;-84
2022/05/22 07:12:09;;;;;;;3.95;2.25;;;17.00;99.60;;;;;;5014889;28;20052;-84
2022/05/22 07:14:36;;;;;;;4.18;1.50;;;17.00;99.60;;;;;;5027145;28;20489;-84
2022/05/22 07:17:02;;;;;;;5.03;1.77;;;17.10;99.70;;;;;;5002968;28;20037;-84
2022/05/22 07:19:28;;;;;;;5.32;2.00;;;17.10;99.50;;;;;;5023288;28;20493;-85
2022/05/22 07:21:54;;;;;;;4.72;1.80;;;17.10;99.50;;;;;;5022252;28;20048;-84
2022/05/22 07:24:20;;;;;;;4.57;1.70;;;17.10;99.60;;;;;;5005029;28;20067;-84
2022/05/22 07:26:45;;;;;;;4.57;2.00;;;17.00;99.60;;;;;;5028113;28;20035;-84
2022/05/22 07:29:11;;;;;;;4.97;2.30;;;16.90;99.80;;;;;;5030700;28;20044;-84
2022/05/22 07:31:39;;;;;;;4.20;1.92;;;17.00;99.90;;;;;;5024214;28;20097;-84
2022/05/22 07:34:05;;;;;;;6.15;2.13;;;16.90;99.90;;;;;;5003475;28;20029;-84
2022/05/22 07:36:30;;;;;;;3.10;1.85;;;16.90;99.80;;;;;;5013273;28;20022;-84
2022/05/22 07:38:56;;;;;;;2.33;1.80;;;17.00;99.90;;;;;;5008080;28;20107;-84
2022/05/22 07:41:22;;;;;;;2.63;1.90;;;17.00;99.80;;;;;;5009299;28;20437;-84
2022/05/22 07:43:47;;;;;;;3.80;1.88;;;17.10;99.60;;;;;;5024811;28;20029;-82
2022/05/22 07:46:14;;;;;;;5.03;2.00;;;17.10;99.50;;;;;;5019318;28;20631;-85
2022/05/22 07:48:41;;;;;;;2.75;1.60;;;17.10;99.50;;;;;;5020583;28;20027;-85
2022/05/22 07:53:34;;;;;;;3.75;1.80;;;17.30;99.90;;;;;;5033381;28;20071;-75
2022/05/22 07:56:01;;;;;;;4.82;2.65;;;17.40;99.90;;;;;;5053710;28;20029;-74
2022/05/22 07:58:29;;;;;;;4.80;2.03;;;17.40;99.60;;;;;;5052678;28;20028;-74
2022/05/22 08:00:56;;;;;;;4.55;2.05;;;17.50;99.50;;;;;;5061958;28;20032;-74
2022/05/22 08:03:22;;;;;;;3.72;2.38;;;17.60;99.40;;;;;;5048058;28;20128;-74
2022/05/22 08:05:48;;;;;;;5.53;2.20;;;17.70;99.20;;;;;;5042982;28;20427;-73
2022/05/22 08:08:16;;;;;;;4.22;2.30;;;17.80;99.00;;;;;;5054675;28;20104;-72
2022/05/22 08:10:42;;;;;;;7.57;2.33;;;17.90;98.60;;;;;;4969412;28;20069;-72
2022/05/22 08:13:10;;;;;;;3.00;2.10;;;17.90;98.50;;;;;;4980509;28;20066;-72
2022/05/22 08:15:37;;;;;;;4.63;2.10;;;18.00;98.50;;;;;;4975807;28;20506;-73
2022/05/22 08:18:04;;;;;;;2.65;2.00;;;18.10;98.10;;;;;;4975478;28;20546;-72
2022/05/22 08:20:34;;;;;;;3.03;1.70;;;18.20;97.80;;;;;;4975384;28;20109;-72
2022/05/22 08:23:03;;;;;;;6.57;2.67;;;18.20;97.50;;;;;;4958344;28;20026;-72
2022/05/22 08:25:30;;;;;;;8.57;2.60;;;18.30;97.50;;;;;;4975064;28;20034;-73
2022/05/22 08:27:56;;;;;;;4.05;1.73;;;18.30;97.70;;;;;;4975545;28;20023;-73
2022/05/22 08:30:24;;;;;;;3.15;1.85;;;18.40;97.80;;;;;;4975618;28;20426;-72
2022/05/22 08:32:51;;;;;;;3.92;2.15;;;18.40;97.40;;;;;;4957516;28;20042;-73
2022/05/22 08:35:27;;;;;;;2.70;1.80;;;18.40;97.20;;;;;;4958468;28;20023;-74
2022/05/22 08:38:00;;;;;;;5.07;2.05;;;18.50;97.10;;;;;;4975100;28;20101;-74
2022/05/22 08:40:33;;;;;;;3.57;1.83;;;18.50;97.10;;;;;;4958200;28;20030;-73
2022/05/22 08:43:10;;;;;;;4.35;1.75;;;18.60;97.00;;;;;;4975136;28;20022;-74
2022/05/22 08:45:51;;;;;;;3.42;1.98;;;18.70;96.80;;;;;;4975283;28;20372;-74
2022/05/22 08:48:33;;;;;;;3.45;1.60;;;18.90;96.70;;;;;;4957810;28;20041;-73
2022/05/22 08:51:00;;;;;;;4.32;1.77;;;19.00;96.50;;;;;;4956809;28;20034;-75
2022/05/22 08:53:30;;;;;;;2.53;1.58;;;19.00;96.20;;;;;;4974103;28;20426;-72
2022/05/22 08:59:10;;;;;;;5.07;1.70;;;19.10;96.20;;;;;;4973834;28;20034;-75
2022/05/22 09:01:35;;;;;;;7.88;2.20;;;19.10;96.30;;;;;;4972788;28;20027;-72
2022/05/22 09:04:10;;;;;;;3.20;1.70;;;19.10;96.20;;;;;;4974220;28;20038;-73
2022/05/22 09:06:43;;;;;;;3.85;1.73;;;19.10;96.30;;;;;;4974412;28;20023;-74
2022/05/22 09:09:09;;;;;;;4.30;1.67;;;19.10;96.30;;;;;;4973648;28;20088;-73
2022/05/22 09:12:26;;;;;;;3.60;1.90;;;19.20;96.30;;;;;;4983416;28;20030;-72
2022/05/22 09:15:27;;;;;;;4.97;1.95;;;19.20;95.80;;;;;;4975589;28;20037;-74
2022/05/22 09:18:04;;;;;;;3.38;1.40;;;19.30;95.90;;;;;;4971776;28;20023;-73
2022/05/22 09:20:55;;;;;;;2.85;1.33;;;19.40;95.50;;;;;;5008277;28;20034;-73
2022/05/22 09:23:46;;;;;;;3.55;1.30;;;19.50;95.50;;;;;;4969085;28;20027;-73
2022/05/22 09:26:53;;;;;;;2.20;1.35;;;19.60;95.30;;;;;;4980910;28;20026;-73
2022/05/22 09:29:34;;;;;;;2.88;1.70;;;19.90;94.60;;;;;;4978590;28;20027;-72
2022/05/22 09:32:21;;;;;;;4.22;1.70;;;20.10;94.50;;;;;;4973785;28;20031;-73
2022/05/22 09:34:59;;;;;;;2.13;1.40;;;20.20;94.20;;;;;;4974429;28;20025;-74
2022/05/22 09:37:27;;;;;;;2.13;1.27;;;20.30;93.30;;;;;;4990296;28;20035;-73
2022/05/22 09:40:14;;;;;;;4.00;1.30;;;20.40;93.20;;;;;;4991006;28;20023;-73
2022/05/22 09:42:58;;;;;;;3.40;1.80;;;20.50;93.00;;;;;;4974814;28;20390;-73
2022/05/22 09:45:45;;;;;;;3.05;1.58;;;20.60;92.30;;;;;;4974366;28;20053;-73
2022/05/22 09:48:29;;;;;;;2.50;1.90;;;20.70;91.90;;;;;;4974127;28;20027;-77
2022/05/22 09:51:13;;;;;;;2.72;1.40;;;20.70;91.20;;;;;;4974673;28;20050;-75
2022/05/22 09:53:57;;;;;;;3.72;1.30;;;20.70;90.80;;;;;;4974730;28;20049;-75
2022/05/22 09:56:54;;;;;;;1.90;1.25;;;20.80;90.00;;;;;;4974549;28;20031;-75
2022/05/22 09:59:45;;;;;;;1.83;1.00;;;20.80;89.10;;;;;;4973769;28;20125;-75
2022/05/22 10:02:22;;;;;;;3.80;1.27;;;20.90;87.50;;;;;;4959114;28;20518;-74
2022/05/22 10:05:23;;;;;;;2.78;1.10;;;20.90;86.40;;;;;;4977422;28;20022;-74
2022/05/22 10:08:07;;;;;;;2.28;1.23;;;20.90;86.10;;;;;;4940468;29;20028;-74
2022/05/22 10:10:48;;;;;;;3.83;1.30;;;20.90;85.50;;;;;;4958592;29;20116;-74
2022/05/22 10:13:44;;;;;;;2.20;1.00;;;20.90;84.10;;;;;;4958198;29;20399;-75
2022/05/22 10:16:16;;;;;;;2.65;1.00;;;21.00;83.50;;;;;;4958203;29;20027;-75
2022/05/22 10:18:54;;;;;;;2.58;1.20;;;21.00;83.20;;;;;;4972883;28;20046;-75
2022/05/22 10:21:30;;;;;;;1.77;1.05;;;21.10;82.20;;;;;;4957691;29;20055;-75
2022/05/22 10:24:20;;;;;;;3.22;1.23;;;21.30;79.70;;;;;;4957887;29;20027;-75
2022/05/22 10:27:13;;;;;;;2.47;1.00;;;21.50;79.50;;;;;;4972275;28;20019;-75
2022/05/22 10:29:50;;;;;;;2.58;0.90;;;21.70;76.30;;;;;;4958294;29;20521;-73
2022/05/22 10:32:25;;;;;;;3.00;0.85;;;21.90;74.90;;;;;;4957867;29;20369;-74
2022/05/22 10:35:00;;;;;;;2.80;0.82;;;22.10;73.20;;;;;;4972509;28;20054;-74
2022/05/22 10:37:33;;;;;;;2.00;1.10;;;22.30;72.30;;;;;;4961065;29;20479;-75
2022/05/22 10:40:07;;;;;;;1.52;1.15;;;22.40;71.70;;;;;;4962036;29;20019;-74
2022/05/22 10:42:45;;;;;;;2.30;0.90;;;22.40;70.00;;;;;;4959337;29;20027;-74
2022/05/22 10:45:33;;;;;;;1.10;0.82;;;22.50;68.90;;;;;;4958142;29;20031;-74
2022/05/22 10:48:25;;;;;;;1.90;0.93;;;22.40;67.40;;;;;;4962072;29;20042;-75
2022/05/22 10:51:11;;;;;;;2.05;0.98;;;22.40;68.40;;;;;;4961521;29;20423;-73
2022/05/22 10:53:51;;;;;;;2.35;1.02;;;22.50;68.10;;;;;;4958890;29;20488;-75
2022/05/22 10:56:26;;;;;;;4.28;1.00;;;22.50;67.10;;;;;;4940944;29;20027;-74
2022/05/22 10:58:59;;;;;;;3.65;1.23;;;22.50;66.70;;;;;;4957835;29;20502;-75
2022/05/22 11:01:27;;;;;;;1.63;0.82;;;22.40;66.70;;;;;;4958033;29;20027;-75
2022/05/22 11:04:12;;;;;;;4.78;1.77;;;22.40;66.40;;;;;;4957874;29;20038;-76
2022/05/22 11:06:59;;;;;;;4.53;1.30;;;22.30;66.30;;;;;;4957397;29;20031;-75
2022/05/22 11:09:30;;;;;;;0.95;0.82;;;22.30;65.60;;;;;;4957616;29;20042;-73
2022/05/22 11:12:13;;;;;;;2.53;1.40;;;22.30;65.10;;;;;;4957401;28;20384;-75
2022/05/22 11:14:40;;;;;;;3.20;1.40;;;22.20;65.10;;;;;;4958238;29;20039;-74
2022/05/22 11:17:17;;;;;;;2.45;1.25;;;22.10;65.60;;;;;;4957814;29;20024;-75
2022/05/22 11:19:47;;;;;;;5.22;1.30;;;22.10;65.90;;;;;;4957663;29;20035;-75
2022/05/22 11:22:58;;;;;;;3.45;1.00;;;22.10;65.50;;;;;;4942253;29;20099;-75
2022/05/22 11:25:47;;;;;;;1.95;1.00;;;22.00;65.50;;;;;;4962609;28;20031;-75
2022/05/22 11:28:54;;;;;;;2.20;0.93;;;22.00;65.80;;;;;;4978709;28;20058;-75
2022/05/22 11:31:51;;;;;;;2.40;0.75;;;22.00;65.10;;;;;;4978225;28;20034;-75
2022/05/22 11:34:31;;;;;;;1.58;0.82;;;22.10;64.50;;;;;;4977733;28;20476;-74
2022/05/22 11:37:03;;;;;;;1.38;0.80;;;22.20;64.20;;;;;;4977702;28;20031;-75
2022/05/22 11:39:37;;;;;;;1.55;0.80;;;22.20;63.20;;;;;;4975579;28;20490;-75
2022/05/22 11:42:11;;;;;;;;;;;22.20;62.70;;;;;;4990690;28;20022;-75
2022/05/22 11:45:00;;;;;;;3.55;1.30;;;22.20;62.60;;;;;;4975329;28;19910;-75
2022/05/22 11:47:29;;;;;;;4.32;0.90;;;22.30;62.30;;;;;;4972766;28;20110;-73
2022/05/22 11:50:19;;;;;;;2.13;0.90;;;22.40;61.70;;;;;;4976478;28;20035;-73
2022/05/22 11:53:08;;;;;;;1.27;0.80;;;22.40;61.80;;;;;;4979436;28;20037;-74
2022/05/22 11:55:58;;;;;;;1.35;0.60;;;22.50;60.30;;;;;;4968466;28;20648;-75
2022/05/22 11:58:34;;;;;;;1.80;0.70;;;22.60;59.80;;;;;;4969510;28;20023;-75
2022/05/22 12:01:22;;;;;;;2.72;0.90;;;22.60;58.30;;;;;;4977919;28;20499;-74
2022/05/22 12:03:53;;;;;;;1.48;0.80;;;22.70;58.20;;;;;;4963665;28;20038;-74
2022/05/22 12:06:39;;;;;;;2.28;0.75;;;22.70;57.90;;;;;;4974144;28;20050;-75
2022/05/22 12:09:39;;;;;;;3.40;0.70;;;22.70;57.60;;;;;;4976588;28;20097;-74
2022/05/22 12:12:40;;;;;;;1.15;0.82;;;22.80;57.40;;;;;;4956381;29;20102;-76
2022/05/22 12:15:31;;;;;;;1.63;0.80;;;22.80;57.20;;;;;;4947025;29;20499;-75
2022/05/22 12:18:05;;;;;;;1.80;0.90;;;22.80;55.80;;;;;;4956656;29;20469;-75
2022/05/22 12:20:49;;;;;;;1.98;0.65;;;22.90;55.50;;;;;;4965988;28;20379;-76
2022/05/22 12:23:42;;;;;;;1.83;0.73;;;22.90;55.10;;;;;;4977250;28;20058;-76
2022/05/22 12:26:08;;;;;;;1.60;0.80;;;23.00;54.40;;;;;;4976829;28;20118;-75
2022/05/22 12:28:38;;;;;;;2.13;0.77;;;23.10;54.10;;;;;;4975093;28;20486;-74
2022/05/22 12:31:09;;;;;;;3.85;1.23;;;23.20;54.00;;;;;;4974689;28;20031;-77
2022/05/22 12:33:36;;;;;;;6.68;3.38;;;23.30;52.80;;;;;;4957637;28;20023;-75
2022/05/22 12:36:05;;;;;;;1.27;0.70;;;23.40;52.10;;;;;;4975418;28;20026;-75
2022/05/22 12:38:33;;;;;;;1.63;0.70;;;23.50;50.80;;;;;;4966580;28;20090;-74
2022/05/22 12:41:29;;;;;;;1.92;0.80;;;23.60;48.50;;;;;;4955705;29;20027;-75
2022/05/22 12:43:57;;;;;;;1.67;0.93;;;23.70;49.00;;;;;;4956067;29;20098;-75
2022/05/22 12:46:25;;;;;;;0.77;0.60;;;23.80;49.30;;;;;;4956269;29;20036;-74
2022/05/22 12:49:10;;;;;;;1.25;0.82;;;23.90;48.20;;;;;;4955376;29;20031;-75
2022/05/22 12:51:41;;;;;;;1.85;0.63;;;24.00;47.70;;;;;;4955298;29;20050;-76
2022/05/22 12:54:22;;;;;;;1.38;0.73;;;24.00;48.90;;;;;;4955263;29;20431;-74
2022/05/22 12:56:50;;;;;;;2.92;0.82;;;24.00;49.50;;;;;;4938069;29;20463;-74
2022/05/22 12:59:27;;;;;;;2.33;1.00;;;24.00;49.60;;;;;;4954891;29;20468;-73
2022/05/22 13:01:56;;;;;;;2.90;0.93;;;24.00;48.50;;;;;;4954636;29;20091;-73
2022/05/22 13:04:52;;;;;;;1.40;0.80;;;23.90;48.40;;;;;;4950684;29;20480;-74
2022/05/22 13:07:29;;;;;;;1.23;0.75;;;23.90;48.10;;;;;;4969977;28;20136;-73
2022/05/22 13:09:55;;;;;;;2.78;1.30;;;23.90;48.30;;;;;;4969997;28;20031;-74
2022/05/22 13:12:31;;;;;;;3.72;0.90;;;23.90;47.90;;;;;;4955052;29;20373;-73
2022/05/22 13:15:15;;;;;;;2.28;0.70;;;23.80;47.80;;;;;;4983319;28;20057;-75
2022/05/22 13:17:51;;;;;;;1.38;0.75;;;23.80;48.50;;;;;;4994370;28;20033;-74
2022/05/22 13:20:35;;;;;;;2.08;0.70;;;23.80;49.00;;;;;;4994024;28;20045;-74
2022/05/22 13:23:11;;;;;;;2.60;1.67;;;23.80;49.40;;;;;;4988349;28;20483;-73